sensor_id;sensor_type;location;lat;lon;timestamp;pressure;altitude;pressure_sealevel;temperature;humidity
804;BME280;25687;49.976;8.240;2023-04-23T00:00:47;99385.38;;;11.94;100.00
804;BME280;25687;49.976;8.240;2023-04-23T00:03:13;99382.81;;;11.94;100.00
804;BME280;25687;49.976;8.240;2023-04-23T00:05:39;99389.22;;;11.89;100.00
804;BME280;25687;49.976;8.240;2023-04-23T00:08:06;99390.53;;;11.94;100.00
804;BME280;25687;49.976;8.240;2023-04-23T00:10:33;99389.41;;;11.99;100.00
804;BME280;25687;49.976;8.240;2023-04-23T00:12:58;99387.66;;;11.99;100.00
804;BME280;25687;49.976;8.240;2023-04-23T00:15:24;99392.00;;;11.99;100.00
804;BME280;25687;49.976;8.240;2023-04-23T00:17:49;99390.53;;;11.94;100.00
804;BME280;25687;49.976;8.240;2023-04-23T00:20:15;99390.53;;;11.94;100.00
804;BME280;25687;49.976;8.240;2023-04-23T00:22:42;99392.59;;;11.89;100.00
804;BME280;25687;49.976;8.240;2023-04-23T00:25:08;99395.09;;;11.91;100.00
804;BME280;25687;49.976;8.240;2023-04-23T00:27:34;99395.09;;;11.91;100.00
804;BME280;25687;49.976;8.240;2023-04-23T00:29:59;99386.41;;;11.92;100.00
804;BME280;25687;49.976;8.240;2023-04-23T00:32:25;99392.84;;;11.86;100.00
804;BME280;25687;49.976;8.240;2023-04-23T00:34:50;99400.44;;;11.88;100.00
804;BME280;25687;49.976;8.240;2023-04-23T00:37:16;99399.03;;;11.84;100.00
804;BME280;25687;49.976;8.240;2023-04-23T00:39:42;99400.88;;;11.82;100.00
804;BME280;25687;49.976;8.240;2023-04-23T00:42:07;99401.63;;;11.84;100.00
804;BME280;25687;49.976;8.240;2023-04-23T00:44:37;99395.72;;;11.82;100.00
804;BME280;25687;49.976;8.240;2023-04-23T00:47:02;99390.38;;;11.85;100.00
804;BME280;25687;49.976;8.240;2023-04-23T00:49:28;99393.81;;;11.72;100.00
804;BME280;25687;49.976;8.240;2023-04-23T00:51:53;99395.47;;;11.73;100.00
804;BME280;25687;49.976;8.240;2023-04-23T00:54:19;99382.19;;;11.67;100.00
804;BME280;25687;49.976;8.240;2023-04-23T00:56:46;99386.19;;;11.71;100.00
804;BME280;25687;49.976;8.240;2023-04-23T00:59:12;99387.03;;;11.71;100.00
804;BME280;25687;49.976;8.240;2023-04-23T01:01:37;99391.44;;;11.69;100.00
804;BME280;25687;49.976;8.240;2023-04-23T01:04:03;99389.19;;;11.65;100.00
804;BME280;25687;49.976;8.240;2023-04-23T01:06:29;99392.81;;;11.62;100.00
804;BME280;25687;49.976;8.240;2023-04-23T01:08:56;99398.56;;;11.66;100.00
804;BME280;25687;49.976;8.240;2023-04-23T01:11:21;99397.75;;;11.65;100.00
804;BME280;25687;49.976;8.240;2023-04-23T01:13:47;99390.84;;;11.66;100.00
804;BME280;25687;49.976;8.240;2023-04-23T01:16:12;99387.47;;;11.65;100.00
804;BME280;25687;49.976;8.240;2023-04-23T01:18:37;99383.22;;;11.64;100.00
804;BME280;25687;49.976;8.240;2023-04-23T01:21:05;99387.47;;;11.65;100.00
804;BME280;25687;49.976;8.240;2023-04-23T01:23:31;99397.09;;;11.74;100.00
804;BME280;25687;49.976;8.240;2023-04-23T01:25:56;99399.50;;;11.65;100.00
804;BME280;25687;49.976;8.240;2023-04-23T01:28:23;99400.09;;;11.68;100.00
804;BME280;25687;49.976;8.240;2023-04-23T01:30:48;99398.25;;;11.70;100.00
804;BME280;25687;49.976;8.240;2023-04-23T01:33:15;99392.91;;;11.73;100.00
804;BME280;25687;49.976;8.240;2023-04-23T01:35:41;99404.66;;;11.65;100.00
804;BME280;25687;49.976;8.240;2023-04-23T01:38:09;99399.91;;;11.71;100.00
804;BME280;25687;49.976;8.240;2023-04-23T01:40:35;99406.41;;;11.64;100.00
804;BME280;25687;49.976;8.240;2023-04-23T01:43:01;99405.81;;;11.60;100.00
804;BME280;25687;49.976;8.240;2023-04-23T01:45:26;99408.50;;;11.59;100.00
804;BME280;25687;49.976;8.240;2023-04-23T01:47:52;99414.38;;;11.61;100.00
804;BME280;25687;49.976;8.240;2023-04-23T01:50:17;99423.41;;;11.67;100.00
804;BME280;25687;49.976;8.240;2023-04-23T01:52:43;99416.00;;;11.62;100.00
804;BME280;25687;49.976;8.240;2023-04-23T01:55:09;99416.34;;;11.57;100.00
804;BME280;25687;49.976;8.240;2023-04-23T01:57:35;99418.78;;;11.59;100.00
804;BME280;25687;49.976;8.240;2023-04-23T02:02:37;99414.88;;;11.53;100.00
804;BME280;25687;49.976;8.240;2023-04-23T02:05:03;99419.84;;;11.43;100.00
804;BME280;25687;49.976;8.240;2023-04-23T02:07:34;99421.25;;;11.60;100.00
804;BME280;25687;49.976;8.240;2023-04-23T02:10:01;99416.41;;;11.69;100.00
804;BME280;25687;49.976;8.240;2023-04-23T02:12:26;99420.34;;;11.61;100.00
804;BME280;25687;49.976;8.240;2023-04-23T02:14:53;99418.47;;;11.63;100.00
804;BME280;25687;49.976;8.240;2023-04-23T02:17:19;99417.75;;;11.61;100.00
804;BME280;25687;49.976;8.240;2023-04-23T02:19:45;99417.38;;;11.55;100.00
804;BME280;25687;49.976;8.240;2023-04-23T02:22:11;99418.69;;;11.60;100.00
804;BME280;25687;49.976;8.240;2023-04-23T02:24:36;99422.00;;;11.50;100.00
804;BME280;25687;49.976;8.240;2023-04-23T02:27:03;99426.94;;;11.53;100.00
804;BME280;25687;49.976;8.240;2023-04-23T02:29:28;99429.63;;;11.51;100.00
804;BME280;25687;49.976;8.240;2023-04-23T02:31:53;99429.34;;;11.43;100.00
804;BME280;25687;49.976;8.240;2023-04-23T02:34:19;99433.75;;;11.41;100.00
804;BME280;25687;49.976;8.240;2023-04-23T02:36:44;99440.44;;;11.43;100.00
804;BME280;25687;49.976;8.240;2023-04-23T02:39:09;99438.72;;;11.44;100.00
804;BME280;25687;49.976;8.240;2023-04-23T02:41:35;99434.69;;;11.40;100.00
804;BME280;25687;49.976;8.240;2023-04-23T02:44:00;99437.97;;;11.55;100.00
804;BME280;25687;49.976;8.240;2023-04-23T02:46:25;99444.38;;;11.49;100.00
804;BME280;25687;49.976;8.240;2023-04-23T02:48:50;99437.44;;;11.50;100.00
804;BME280;25687;49.976;8.240;2023-04-23T02:51:16;99433.03;;;11.52;100.00
804;BME280;25687;49.976;8.240;2023-04-23T02:53:41;99432.72;;;11.43;100.00
804;BME280;25687;49.976;8.240;2023-04-23T02:56:06;99438.91;;;11.41;100.00
804;BME280;25687;49.976;8.240;2023-04-23T02:58:32;99437.16;;;11.41;100.00
804;BME280;25687;49.976;8.240;2023-04-23T03:00:58;99443.25;;;11.40;100.00
804;BME280;25687;49.976;8.240;2023-04-23T03:03:24;99443.66;;;11.34;100.00
804;BME280;25687;49.976;8.240;2023-04-23T03:05:51;99442.09;;;11.44;100.00
804;BME280;25687;49.976;8.240;2023-04-23T03:08:17;99439.31;;;11.35;100.00
804;BME280;25687;49.976;8.240;2023-04-23T03:10:42;99444.06;;;11.41;100.00
804;BME280;25687;49.976;8.240;2023-04-23T03:13:07;99446.00;;;11.37;100.00
804;BME280;25687;49.976;8.240;2023-04-23T03:15:33;99452.94;;;11.37;100.00
804;BME280;25687;49.976;8.240;2023-04-23T03:17:58;99447.16;;;11.33;100.00
804;BME280;25687;49.976;8.240;2023-04-23T03:20:25;99445.50;;;11.32;100.00
804;BME280;25687;49.976;8.240;2023-04-23T03:22:50;99441.81;;;11.36;100.00
804;BME280;25687;49.976;8.240;2023-04-23T03:25:16;99439.75;;;11.41;100.00
804;BME280;25687;49.976;8.240;2023-04-23T03:27:41;99445.72;;;11.42;100.00
804;BME280;25687;49.976;8.240;2023-04-23T03:30:08;99440.44;;;11.43;100.00
804;BME280;25687;49.976;8.240;2023-04-23T03:32:35;99440.88;;;11.50;100.00
804;BME280;25687;49.976;8.240;2023-04-23T03:35:00;99442.22;;;11.43;100.00
804;BME280;25687;49.976;8.240;2023-04-23T03:37:26;99440.38;;;11.45;100.00
804;BME280;25687;49.976;8.240;2023-04-23T03:39:51;99432.09;;;11.40;100.00
804;BME280;25687;49.976;8.240;2023-04-23T03:42:19;99429.84;;;11.48;100.00
804;BME280;25687;49.976;8.240;2023-04-23T03:44:44;99418.00;;;11.45;100.00
804;BME280;25687;49.976;8.240;2023-04-23T03:47:10;99424.16;;;11.56;100.00
804;BME280;25687;49.976;8.240;2023-04-23T03:49:35;99419.09;;;11.54;100.00
804;BME280;25687;49.976;8.240;2023-04-23T03:52:03;99415.59;;;11.55;100.00
804;BME280;25687;49.976;8.240;2023-04-23T03:54:28;99416.84;;;11.50;100.00
804;BME280;25687;49.976;8.240;2023-04-23T03:56:53;99418.19;;;11.55;100.00
804;BME280;25687;49.976;8.240;2023-04-23T03:59:19;99429.91;;;11.59;100.00
804;BME280;25687;49.976;8.240;2023-04-23T04:01:45;99439.81;;;11.53;100.00
804;BME280;25687;49.976;8.240;2023-04-23T04:04:12;99434.47;;;11.43;100.00
804;BME280;25687;49.976;8.240;2023-04-23T04:06:38;99432.09;;;11.40;100.00
804;BME280;25687;49.976;8.240;2023-04-23T04:09:03;99440.88;;;11.37;100.00
804;BME280;25687;49.976;8.240;2023-04-23T04:11:28;99425.00;;;11.43;100.00
804;BME280;25687;49.976;8.240;2023-04-23T04:13:53;99432.09;;;11.40;100.00
804;BME280;25687;49.976;8.240;2023-04-23T04:16:19;99439.03;;;11.26;100.00
804;BME280;25687;49.976;8.240;2023-04-23T04:18:44;99442.53;;;11.25;100.00
804;BME280;25687;49.976;8.240;2023-04-23T04:21:09;99447.38;;;11.30;100.00
804;BME280;25687;49.976;8.240;2023-04-23T04:23:35;99444.81;;;11.30;100.00
804;BME280;25687;49.976;8.240;2023-04-23T04:26:00;99443.78;;;11.20;100.00
804;BME280;25687;49.976;8.240;2023-04-23T04:28:26;99443.78;;;11.20;100.00
804;BME280;25687;49.976;8.240;2023-04-23T04:30:52;99445.31;;;11.22;100.00
804;BME280;25687;49.976;8.240;2023-04-23T04:33:18;99445.66;;;11.18;100.00
804;BME280;25687;49.976;8.240;2023-04-23T04:35:44;99432.03;;;11.16;100.00
804;BME280;25687;49.976;8.240;2023-04-23T04:38:10;99441.72;;;11.12;100.00
804;BME280;25687;49.976;8.240;2023-04-23T04:40:36;99439.66;;;11.17;100.00
804;BME280;25687;49.976;8.240;2023-04-23T04:43:01;99438.72;;;11.18;100.00
804;BME280;25687;49.976;8.240;2023-04-23T04:45:29;99438.84;;;11.17;100.00
804;BME280;25687;49.976;8.240;2023-04-23T04:47:54;99437.19;;;11.16;100.00
804;BME280;25687;49.976;8.240;2023-04-23T04:50:19;99438.63;;;11.20;100.00
804;BME280;25687;49.976;8.240;2023-04-23T04:52:45;99442.97;;;11.19;100.00
804;BME280;25687;49.976;8.240;2023-04-23T04:55:10;99437.59;;;11.22;100.00
804;BME280;25687;49.976;8.240;2023-04-23T04:57:35;99442.00;;;11.33;100.00
804;BME280;25687;49.976;8.240;2023-04-23T05:00:07;99441.19;;;11.33;100.00
804;BME280;25687;49.976;8.240;2023-04-23T05:02:42;99440.47;;;11.30;100.00
804;BME280;25687;49.976;8.240;2023-04-23T05:05:08;99439.97;;;11.25;100.00
804;BME280;25687;49.976;8.240;2023-04-23T05:07:33;99441.91;;;11.22;100.00
804;BME280;25687;49.976;8.240;2023-04-23T05:09:58;99441.53;;;11.15;100.00
804;BME280;25687;49.976;8.240;2023-04-23T05:12:23;99434.22;;;11.09;100.00
804;BME280;25687;49.976;8.240;2023-04-23T05:14:49;99440.59;;;11.03;100.00
804;BME280;25687;49.976;8.240;2023-04-23T05:17:14;99442.63;;;11.11;100.00
804;BME280;25687;49.976;8.240;2023-04-23T05:19:39;99447.09;;;11.09;100.00
804;BME280;25687;49.976;8.240;2023-04-23T05:22:05;99451.19;;;11.11;100.00
804;BME280;25687;49.976;8.240;2023-04-23T05:24:30;99448.84;;;11.21;100.00
804;BME280;25687;49.976;8.240;2023-04-23T05:26:55;99449.25;;;11.15;100.00
804;BME280;25687;49.976;8.240;2023-04-23T05:29:21;99438.63;;;11.20;100.00
804;BME280;25687;49.976;8.240;2023-04-23T05:31:46;99448.69;;;11.36;100.00
804;BME280;25687;49.976;8.240;2023-04-23T05:34:11;99440.78;;;11.39;100.00
804;BME280;25687;49.976;8.240;2023-04-23T05:36:37;99442.59;;;11.50;100.00
804;BME280;25687;49.976;8.240;2023-04-23T05:39:02;99447.97;;;11.46;100.00
804;BME280;25687;49.976;8.240;2023-04-23T05:41:27;99453.53;;;11.40;100.00
804;BME280;25687;49.976;8.240;2023-04-23T05:43:53;99455.47;;;11.50;100.00
804;BME280;25687;49.976;8.240;2023-04-23T05:46:18;99457.84;;;11.53;100.00
804;BME280;25687;49.976;8.240;2023-04-23T05:48:43;99459.16;;;11.58;100.00
804;BME280;25687;49.976;8.240;2023-04-23T05:51:10;99458.97;;;11.61;100.00
804;BME280;25687;49.976;8.240;2023-04-23T05:53:35;99462.78;;;11.69;100.00
804;BME280;25687;49.976;8.240;2023-04-23T05:56:00;99464.94;;;11.75;100.00
804;BME280;25687;49.976;8.240;2023-04-23T05:58:25;99459.13;;;11.84;100.00
804;BME280;25687;49.976;8.240;2023-04-23T06:00:51;99460.31;;;11.67;100.00
804;BME280;25687;49.976;8.240;2023-04-23T06:03:17;99456.47;;;11.73;100.00
804;BME280;25687;49.976;8.240;2023-04-23T06:05:42;99462.53;;;11.85;100.00
804;BME280;25687;49.976;8.240;2023-04-23T06:08:07;99462.41;;;11.99;100.00
804;BME280;25687;49.976;8.240;2023-04-23T06:10:33;99450.28;;;12.13;100.00
804;BME280;25687;49.976;8.240;2023-04-23T06:12:58;99454.13;;;12.07;100.00
804;BME280;25687;49.976;8.240;2023-04-23T06:15:23;99457.91;;;12.14;100.00
804;BME280;25687;49.976;8.240;2023-04-23T06:17:51;99464.44;;;12.07;100.00
804;BME280;25687;49.976;8.240;2023-04-23T06:20:17;99461.06;;;12.31;100.00
804;BME280;25687;49.976;8.240;2023-04-23T06:22:43;99459.75;;;12.36;100.00
804;BME280;25687;49.976;8.240;2023-04-23T06:25:09;99457.91;;;12.38;100.00
804;BME280;25687;49.976;8.240;2023-04-23T06:27:34;99463.00;;;12.51;100.00
804;BME280;25687;49.976;8.240;2023-04-23T06:29:59;99471.00;;;12.59;100.00
804;BME280;25687;49.976;8.240;2023-04-23T06:32:25;99472.97;;;12.91;100.00
804;BME280;25687;49.976;8.240;2023-04-23T06:34:50;99467.06;;;13.59;100.00
804;BME280;25687;49.976;8.240;2023-04-23T06:37:15;99471.00;;;14.62;100.00
804;BME280;25687;49.976;8.240;2023-04-23T06:39:41;99452.59;;;15.70;100.00
804;BME280;25687;49.976;8.240;2023-04-23T06:42:06;99450.00;;;15.70;100.00
804;BME280;25687;49.976;8.240;2023-04-23T06:44:31;99450.84;;;15.39;100.00
804;BME280;25687;49.976;8.240;2023-04-23T06:46:56;99448.03;;;15.11;100.00
804;BME280;25687;49.976;8.240;2023-04-23T06:49:22;99442.19;;;14.67;100.00
804;BME280;25687;49.976;8.240;2023-04-23T06:51:47;99430.16;;;15.49;100.00
804;BME280;25687;49.976;8.240;2023-04-23T06:54:12;99426.19;;;17.49;100.00
804;BME280;25687;49.976;8.240;2023-04-23T06:56:38;99440.19;;;18.48;100.00
804;BME280;25687;49.976;8.240;2023-04-23T06:59:03;99431.50;;;20.45;100.00
804;BME280;25687;49.976;8.240;2023-04-23T07:01:28;99419.22;;;22.36;87.44
804;BME280;25687;49.976;8.240;2023-04-23T07:03:54;99420.88;;;23.94;77.40
804;BME280;25687;49.976;8.240;2023-04-23T07:06:19;99413.94;;;24.64;64.31
804;BME280;25687;49.976;8.240;2023-04-23T07:08:45;99410.66;;;24.56;61.20
804;BME280;25687;49.976;8.240;2023-04-23T07:11:10;99415.84;;;25.06;62.05
804;BME280;25687;49.976;8.240;2023-04-23T07:13:36;99427.63;;;24.53;61.15
804;BME280;25687;49.976;8.240;2023-04-23T07:16:02;99435.84;;;24.65;59.70
804;BME280;25687;49.976;8.240;2023-04-23T07:18:27;99443.19;;;23.31;70.43
804;BME280;25687;49.976;8.240;2023-04-23T07:20:52;99422.53;;;23.58;69.90
804;BME280;25687;49.976;8.240;2023-04-23T07:23:18;99428.25;;;25.19;61.00
804;BME280;25687;49.976;8.240;2023-04-23T07:25:43;99426.22;;;25.69;54.20
804;BME280;25687;49.976;8.240;2023-04-23T07:28:08;99428.69;;;25.98;50.49
804;BME280;25687;49.976;8.240;2023-04-23T07:30:33;99431.16;;;27.45;46.23
804;BME280;25687;49.976;8.240;2023-04-23T07:32:59;99425.19;;;28.21;43.37
804;BME280;25687;49.976;8.240;2023-04-23T07:35:25;99435.50;;;27.19;45.23
804;BME280;25687;49.976;8.240;2023-04-23T07:37:51;99428.84;;;24.79;51.98
804;BME280;25687;49.976;8.240;2023-04-23T07:40:20;99423.44;;;22.61;69.33
804;BME280;25687;49.976;8.240;2023-04-23T07:42:45;99422.16;;;20.84;85.72
804;BME280;25687;49.976;8.240;2023-04-23T07:45:10;99421.19;;;19.09;98.88
804;BME280;25687;49.976;8.240;2023-04-23T07:47:36;99421.44;;;18.27;100.00
804;BME280;25687;49.976;8.240;2023-04-23T07:50:01;99412.81;;;17.90;100.00
804;BME280;25687;49.976;8.240;2023-04-23T07:52:26;99405.13;;;17.24;100.00
804;BME280;25687;49.976;8.240;2023-04-23T07:54:52;99407.47;;;16.60;100.00
804;BME280;25687;49.976;8.240;2023-04-23T07:57:17;99409.63;;;16.75;100.00
804;BME280;25687;49.976;8.240;2023-04-23T07:59:42;99406.09;;;16.66;100.00
804;BME280;25687;49.976;8.240;2023-04-23T08:02:08;99392.47;;;16.44;100.00
804;BME280;25687;49.976;8.240;2023-04-23T08:04:33;99411.63;;;16.24;100.00
804;BME280;25687;49.976;8.240;2023-04-23T08:06:58;99410.38;;;16.38;100.00
804;BME280;25687;49.976;8.240;2023-04-23T08:09:26;99400.00;;;16.28;100.00
804;BME280;25687;49.976;8.240;2023-04-23T08:11:51;99399.22;;;16.85;100.00
804;BME280;25687;49.976;8.240;2023-04-23T08:14:17;99395.00;;;17.21;100.00
804;BME280;25687;49.976;8.240;2023-04-23T08:16:43;99393.50;;;17.47;100.00
804;BME280;25687;49.976;8.240;2023-04-23T08:19:08;99400.19;;;17.49;100.00
804;BME280;25687;49.976;8.240;2023-04-23T08:21:33;99394.91;;;17.41;100.00
804;BME280;25687;49.976;8.240;2023-04-23T08:23:59;99394.84;;;17.51;100.00
804;BME280;25687;49.976;8.240;2023-04-23T08:26:24;99387.28;;;18.48;100.00
804;BME280;25687;49.976;8.240;2023-04-23T08:28:50;99393.94;;;20.05;89.12
804;BME280;25687;49.976;8.240;2023-04-23T08:31:16;99387.72;;;19.98;85.66
804;BME280;25687;49.976;8.240;2023-04-23T08:33:41;99395.91;;;19.35;90.23
804;BME280;25687;49.976;8.240;2023-04-23T08:36:07;99393.31;;;19.01;92.76
804;BME280;25687;49.976;8.240;2023-04-23T08:38:32;99384.56;;;19.10;94.72
804;BME280;25687;49.976;8.240;2023-04-23T08:40:58;99381.16;;;20.60;86.66
804;BME280;25687;49.976;8.240;2023-04-23T08:43:32;99383.97;;;21.77;75.72
804;BME280;25687;49.976;8.240;2023-04-23T08:46:02;99388.78;;;23.40;63.65
804;BME280;25687;49.976;8.240;2023-04-23T08:48:29;99386.94;;;24.42;53.38
804;BME280;25687;49.976;8.240;2023-04-23T08:50:56;99395.00;;;22.87;59.49
804;BME280;25687;49.976;8.240;2023-04-23T08:53:24;99387.28;;;24.11;56.93
804;BME280;25687;49.976;8.240;2023-04-23T08:55:50;99387.09;;;24.12;54.46
804;BME280;25687;49.976;8.240;2023-04-23T08:58:17;99394.94;;;25.39;49.51
804;BME280;25687;49.976;8.240;2023-04-23T09:00:43;99383.31;;;27.21;45.09
804;BME280;25687;49.976;8.240;2023-04-23T09:03:09;99393.44;;;27.25;40.94
804;BME280;25687;49.976;8.240;2023-04-23T09:05:35;99382.38;;;28.30;39.80
804;BME280;25687;49.976;8.240;2023-04-23T09:08:00;99383.69;;;28.83;37.76
804;BME280;25687;49.976;8.240;2023-04-23T09:10:25;99380.22;;;29.93;36.09
804;BME280;25687;49.976;8.240;2023-04-23T09:12:51;99380.50;;;29.61;35.65
804;BME280;25687;49.976;8.240;2023-04-23T09:15:16;99378.84;;;30.02;34.27
804;BME280;25687;49.976;8.240;2023-04-23T09:17:43;99381.03;;;31.05;33.93
804;BME280;25687;49.976;8.240;2023-04-23T09:20:11;99371.25;;;29.21;35.00
804;BME280;25687;49.976;8.240;2023-04-23T09:22:55;99359.78;;;29.09;35.83
804;BME280;25687;49.976;8.240;2023-04-23T09:25:22;99374.00;;;29.26;34.83
804;BME280;25687;49.976;8.240;2023-04-23T09:27:51;99368.94;;;28.76;35.53
804;BME280;25687;49.976;8.240;2023-04-23T09:30:17;99364.41;;;28.58;37.53
804;BME280;25687;49.976;8.240;2023-04-23T09:32:44;99352.25;;;27.56;37.51
804;BME280;25687;49.976;8.240;2023-04-23T09:35:15;99351.88;;;27.52;39.36
804;BME280;25687;49.976;8.240;2023-04-23T09:37:46;99344.41;;;27.74;38.32
804;BME280;25687;49.976;8.240;2023-04-23T09:40:20;99344.97;;;25.53;41.64
804;BME280;25687;49.976;8.240;2023-04-23T09:42:47;99340.28;;;24.51;44.12
804;BME280;25687;49.976;8.240;2023-04-23T09:45:20;99336.34;;;24.69;46.18
804;BME280;25687;49.976;8.240;2023-04-23T09:47:50;99336.25;;;25.52;43.88
804;BME280;25687;49.976;8.240;2023-04-23T09:50:17;99337.94;;;26.99;40.62
804;BME280;25687;49.976;8.240;2023-04-23T09:52:42;99330.97;;;28.45;38.60
804;BME280;25687;49.976;8.240;2023-04-23T09:55:08;99329.56;;;27.48;37.62
804;BME280;25687;49.976;8.240;2023-04-23T09:57:38;99334.84;;;25.90;40.08
804;BME280;25687;49.976;8.240;2023-04-23T10:00:16;99333.69;;;24.33;46.45
804;BME280;25687;49.976;8.240;2023-04-23T10:02:49;99326.34;;;22.99;56.17
804;BME280;25687;49.976;8.240;2023-04-23T10:05:16;99331.97;;;22.13;59.81
804;BME280;25687;49.976;8.240;2023-04-23T10:07:46;99315.56;;;22.19;64.89
804;BME280;25687;49.976;8.240;2023-04-23T10:10:15;99316.19;;;23.69;56.05
804;BME280;25687;49.976;8.240;2023-04-23T10:12:42;99325.13;;;23.75;57.24
804;BME280;25687;49.976;8.240;2023-04-23T10:15:08;99312.38;;;24.50;50.89
804;BME280;25687;49.976;8.240;2023-04-23T10:17:35;99310.50;;;23.44;54.66
804;BME280;25687;49.976;8.240;2023-04-23T10:20:00;99313.56;;;23.91;53.26
804;BME280;25687;49.976;8.240;2023-04-23T10:22:28;99313.75;;;23.67;54.24
804;BME280;25687;49.976;8.240;2023-04-23T10:24:55;99316.22;;;22.96;56.83
804;BME280;25687;49.976;8.240;2023-04-23T10:27:27;99317.63;;;22.47;57.15
804;BME280;25687;49.976;8.240;2023-04-23T10:29:53;99321.88;;;22.09;64.57
804;BME280;25687;49.976;8.240;2023-04-23T10:32:20;99318.78;;;21.68;68.51
804;BME280;25687;49.976;8.240;2023-04-23T10:34:46;99311.69;;;21.22;72.13
804;BME280;25687;49.976;8.240;2023-04-23T10:37:13;99301.97;;;20.59;81.75
804;BME280;25687;49.976;8.240;2023-04-23T10:39:43;99303.03;;;20.25;79.58
804;BME280;25687;49.976;8.240;2023-04-23T10:42:09;99296.53;;;19.96;81.19
804;BME280;25687;49.976;8.240;2023-04-23T10:44:38;99293.34;;;19.18;87.39
804;BME280;25687;49.976;8.240;2023-04-23T10:47:05;99291.34;;;18.96;95.43
804;BME280;25687;49.976;8.240;2023-04-23T10:49:31;99297.91;;;17.58;100.00
804;BME280;25687;49.976;8.240;2023-04-23T10:51:59;99294.97;;;16.70;100.00
804;BME280;25687;49.976;8.240;2023-04-23T10:54:30;99296.75;;;16.22;100.00
804;BME280;25687;49.976;8.240;2023-04-23T10:57:05;99286.81;;;16.07;100.00
804;BME280;25687;49.976;8.240;2023-04-23T10:59:32;99283.53;;;16.25;100.00
804;BME280;25687;49.976;8.240;2023-04-23T11:02:05;99281.88;;;16.61;100.00
804;BME280;25687;49.976;8.240;2023-04-23T11:04:32;99276.56;;;17.19;100.00
804;BME280;25687;49.976;8.240;2023-04-23T11:07:05;99269.16;;;17.42;100.00
804;BME280;25687;49.976;8.240;2023-04-23T11:16:14;99245.78;;;18.31;100.00
804;BME280;25687;49.976;8.240;2023-04-23T11:24:36;99243.75;;;17.54;100.00
804;BME280;25687;49.976;8.240;2023-04-23T11:27:07;99250.81;;;17.43;100.00
804;BME280;25687;49.976;8.240;2023-04-23T11:29:33;99247.81;;;17.20;100.00
804;BME280;25687;49.976;8.240;2023-04-23T11:31:58;99244.69;;;16.99;100.00
804;BME280;25687;49.976;8.240;2023-04-23T11:34:24;99244.00;;;16.97;100.00
804;BME280;25687;49.976;8.240;2023-04-23T11:36:52;99233.53;;;16.88;100.00
804;BME280;25687;49.976;8.240;2023-04-23T11:39:18;99230.06;;;16.98;100.00
804;BME280;25687;49.976;8.240;2023-04-23T11:41:44;99229.38;;;17.41;100.00
804;BME280;25687;49.976;8.240;2023-04-23T11:44:11;99228.06;;;17.64;100.00
804;BME280;25687;49.976;8.240;2023-04-23T11:46:37;99226.06;;;17.57;100.00
804;BME280;25687;49.976;8.240;2023-04-23T11:49:02;99224.91;;;17.78;100.00
804;BME280;25687;49.976;8.240;2023-04-23T11:51:28;99209.81;;;18.00;100.00
804;BME280;25687;49.976;8.240;2023-04-23T11:53:54;99207.09;;;18.44;100.00
804;BME280;25687;49.976;8.240;2023-04-23T11:56:29;99201.66;;;18.72;100.00
804;BME280;25687;49.976;8.240;2023-04-23T11:59:01;99199.09;;;18.88;100.00
804;BME280;25687;49.976;8.240;2023-04-23T12:01:38;99194.97;;;18.18;100.00
804;BME280;25687;49.976;8.240;2023-04-23T12:04:14;99192.47;;;19.02;100.00
804;BME280;25687;49.976;8.240;2023-04-23T12:06:42;99181.25;;;19.60;98.94
804;BME280;25687;49.976;8.240;2023-04-23T12:09:09;99177.50;;;19.46;98.90
804;BME280;25687;49.976;8.240;2023-04-23T12:11:36;99173.91;;;19.06;100.00
804;BME280;25687;49.976;8.240;2023-04-23T12:14:02;99174.38;;;18.93;97.77
804;BME280;25687;49.976;8.240;2023-04-23T12:19:00;99177.84;;;19.01;99.95
804;BME280;25687;49.976;8.240;2023-04-23T12:21:26;99176.75;;;18.69;98.52
804;BME280;25687;49.976;8.240;2023-04-23T12:23:55;99172.13;;;18.47;100.00
804;BME280;25687;49.976;8.240;2023-04-23T12:26:21;99165.44;;;18.36;100.00
804;BME280;25687;49.976;8.240;2023-04-23T12:28:55;99160.09;;;18.46;100.00
804;BME280;25687;49.976;8.240;2023-04-23T12:31:27;99162.69;;;18.54;95.18
804;BME280;25687;49.976;8.240;2023-04-23T12:34:06;99152.91;;;18.39;97.26
804;BME280;25687;49.976;8.240;2023-04-23T12:36:33;99145.88;;;18.32;99.39
804;BME280;25687;49.976;8.240;2023-04-23T12:39:37;99139.16;;;18.72;97.50
804;BME280;25687;49.976;8.240;2023-04-23T12:42:05;99132.56;;;19.19;94.19
804;BME280;25687;49.976;8.240;2023-04-23T12:44:32;99124.16;;;18.74;95.70
804;BME280;25687;49.976;8.240;2023-04-23T12:47:02;99126.03;;;19.23;97.08
804;BME280;25687;49.976;8.240;2023-04-23T12:49:29;99124.22;;;18.91;91.79
804;BME280;25687;49.976;8.240;2023-04-23T12:51:55;99120.84;;;18.39;93.58
804;BME280;25687;49.976;8.240;2023-04-23T12:54:25;99116.09;;;19.10;91.14
804;BME280;25687;49.976;8.240;2023-04-23T12:56:51;99109.41;;;19.24;87.14
804;BME280;25687;49.976;8.240;2023-04-23T12:59:16;99101.09;;;19.29;89.38
804;BME280;25687;49.976;8.240;2023-04-23T13:01:42;99096.59;;;19.79;90.49
804;BME280;25687;49.976;8.240;2023-04-23T13:04:07;99106.59;;;19.50;84.03
804;BME280;25687;49.976;8.240;2023-04-23T13:06:33;99102.16;;;19.67;85.67
804;BME280;25687;49.976;8.240;2023-04-23T13:08:58;99093.91;;;19.39;84.56
804;BME280;25687;49.976;8.240;2023-04-23T13:11:26;99096.00;;;19.52;84.84
804;BME280;25687;49.976;8.240;2023-04-23T13:13:51;99093.94;;;18.98;82.98
804;BME280;25687;49.976;8.240;2023-04-23T13:16:17;99093.19;;;18.46;76.69
804;BME280;25687;49.976;8.240;2023-04-23T13:18:43;99091.53;;;18.29;78.84
804;BME280;25687;49.976;8.240;2023-04-23T13:21:09;99084.22;;;18.32;78.54
804;BME280;25687;49.976;8.240;2023-04-23T13:23:34;99076.84;;;18.95;77.37
804;BME280;25687;49.976;8.240;2023-04-23T13:26:02;99080.59;;;19.09;73.59
804;BME280;25687;49.976;8.240;2023-04-23T13:28:27;99078.88;;;18.42;72.65